sensor_id;sensor_type;location;lat;lon;timestamp;temperature;humidity
43099;DHT22;28715;51.988;6.020;2023-01-29T00:01:58;4.90;95.80
43099;DHT22;28715;51.988;6.020;2023-01-29T00:04:24;4.90;95.80
43099;DHT22;28715;51.988;6.020;2023-01-29T00:06:49;4.90;95.80
43099;DHT22;28715;51.988;6.020;2023-01-29T00:09:15;4.90;95.70
43099;DHT22;28715;51.988;6.020;2023-01-29T00:11:41;4.80;95.60
43099;DHT22;28715;51.988;6.020;2023-01-29T00:14:07;4.80;95.70
43099;DHT22;28715;51.988;6.020;2023-01-29T00:16:32;4.80;96.00
43099;DHT22;28715;51.988;6.020;2023-01-29T00:19:00;4.80;95.90
43099;DHT22;28715;51.988;6.020;2023-01-29T00:21:26;4.80;95.90
43099;DHT22;28715;51.988;6.020;2023-01-29T00:23:53;4.80;95.90
43099;DHT22;28715;51.988;6.020;2023-01-29T00:26:19;4.90;96.00
43099;DHT22;28715;51.988;6.020;2023-01-29T00:28:45;4.90;95.90
43099;DHT22;28715;51.988;6.020;2023-01-29T00:31:18;4.90;95.90
43099;DHT22;28715;51.988;6.020;2023-01-29T00:33:45;4.90;95.90
43099;DHT22;28715;51.988;6.020;2023-01-29T00:36:12;4.90;95.80
43099;DHT22;28715;51.988;6.020;2023-01-29T00:38:39;4.80;95.60
43099;DHT22;28715;51.988;6.020;2023-01-29T00:41:09;4.80;95.60
43099;DHT22;28715;51.988;6.020;2023-01-29T00:43:54;4.80;95.60
43099;DHT22;28715;51.988;6.020;2023-01-29T00:46:38;4.70;95.60
43099;DHT22;28715;51.988;6.020;2023-01-29T00:49:04;4.70;95.60
43099;DHT22;28715;51.988;6.020;2023-01-29T00:51:30;4.70;95.80
43099;DHT22;28715;51.988;6.020;2023-01-29T00:53:56;4.70;95.80
43099;DHT22;28715;51.988;6.020;2023-01-29T00:56:26;4.70;95.80
43099;DHT22;28715;51.988;6.020;2023-01-29T00:58:52;4.70;95.80
43099;DHT22;28715;51.988;6.020;2023-01-29T01:01:19;4.70;95.80
43099;DHT22;28715;51.988;6.020;2023-01-29T01:04:05;4.60;95.80
43099;DHT22;28715;51.988;6.020;2023-01-29T01:06:30;4.70;95.90
43099;DHT22;28715;51.988;6.020;2023-01-29T01:08:56;4.70;95.80
43099;DHT22;28715;51.988;6.020;2023-01-29T01:11:40;4.70;95.80
43099;DHT22;28715;51.988;6.020;2023-01-29T01:14:05;4.70;95.90
43099;DHT22;28715;51.988;6.020;2023-01-29T01:16:31;4.70;95.90
43099;DHT22;28715;51.988;6.020;2023-01-29T01:18:57;4.70;95.80
43099;DHT22;28715;51.988;6.020;2023-01-29T01:21:22;4.70;95.80
43099;DHT22;28715;51.988;6.020;2023-01-29T01:23:48;4.70;95.80
43099;DHT22;28715;51.988;6.020;2023-01-29T01:26:16;4.70;95.90
43099;DHT22;28715;51.988;6.020;2023-01-29T01:28:42;4.70;95.90
43099;DHT22;28715;51.988;6.020;2023-01-29T01:31:09;4.70;95.90
43099;DHT22;28715;51.988;6.020;2023-01-29T01:33:35;4.70;95.90
43099;DHT22;28715;51.988;6.020;2023-01-29T01:36:03;4.60;95.70
43099;DHT22;28715;51.988;6.020;2023-01-29T01:38:28;4.60;95.90
43099;DHT22;28715;51.988;6.020;2023-01-29T01:40:54;4.60;95.90
43099;DHT22;28715;51.988;6.020;2023-01-29T01:43:19;4.60;96.00
43099;DHT22;28715;51.988;6.020;2023-01-29T01:45:45;4.60;96.00
43099;DHT22;28715;51.988;6.020;2023-01-29T01:48:37;4.50;95.90
43099;DHT22;28715;51.988;6.020;2023-01-29T01:51:04;4.50;96.00
43099;DHT22;28715;51.988;6.020;2023-01-29T01:54:25;4.50;96.00
43099;DHT22;28715;51.988;6.020;2023-01-29T01:56:47;4.50;96.00
43099;DHT22;28715;51.988;6.020;2023-01-29T01:59:16;4.50;95.90
43099;DHT22;28715;51.988;6.020;2023-01-29T02:01:46;4.40;96.00
43099;DHT22;28715;51.988;6.020;2023-01-29T02:04:17;4.50;96.10
43099;DHT22;28715;51.988;6.020;2023-01-29T02:07:03;4.40;96.40
43099;DHT22;28715;51.988;6.020;2023-01-29T02:09:55;4.50;96.10
43099;DHT22;28715;51.988;6.020;2023-01-29T02:12:24;4.50;96.20
43099;DHT22;28715;51.988;6.020;2023-01-29T02:14:51;4.50;96.20
43099;DHT22;28715;51.988;6.020;2023-01-29T02:17:18;4.50;96.10
43099;DHT22;28715;51.988;6.020;2023-01-29T02:31:23;4.40;96.30
43099;DHT22;28715;51.988;6.020;2023-01-29T02:34:15;4.40;96.20
43099;DHT22;28715;51.988;6.020;2023-01-29T02:39:32;4.30;96.10
43099;DHT22;28715;51.988;6.020;2023-01-29T02:42:17;4.30;96.10
43099;DHT22;28715;51.988;6.020;2023-01-29T02:44:56;4.20;96.10
43099;DHT22;28715;51.988;6.020;2023-01-29T02:48:13;4.20;96.20
43099;DHT22;28715;51.988;6.020;2023-01-29T02:50:40;4.20;96.20
43099;DHT22;28715;51.988;6.020;2023-01-29T02:53:28;4.20;96.30
43099;DHT22;28715;51.988;6.020;2023-01-29T02:56:06;4.20;96.40
43099;DHT22;28715;51.988;6.020;2023-01-29T02:58:40;4.20;96.40
43099;DHT22;28715;51.988;6.020;2023-01-29T03:01:31;4.20;96.40
43099;DHT22;28715;51.988;6.020;2023-01-29T03:03:59;4.20;96.30
43099;DHT22;28715;51.988;6.020;2023-01-29T03:06:34;4.30;96.30
43099;DHT22;28715;51.988;6.020;2023-01-29T03:09:33;4.20;96.30
43099;DHT22;28715;51.988;6.020;2023-01-29T03:12:18;4.30;96.40
43099;DHT22;28715;51.988;6.020;2023-01-29T03:15:01;4.30;96.30
43099;DHT22;28715;51.988;6.020;2023-01-29T03:17:46;4.30;96.30
43099;DHT22;28715;51.988;6.020;2023-01-29T03:20:16;4.30;96.30
43099;DHT22;28715;51.988;6.020;2023-01-29T03:22:45;4.30;96.30
43099;DHT22;28715;51.988;6.020;2023-01-29T03:25:13;4.30;96.30
43099;DHT22;28715;51.988;6.020;2023-01-29T03:27:59;4.30;96.30
43099;DHT22;28715;51.988;6.020;2023-01-29T03:30:52;4.30;96.40
43099;DHT22;28715;51.988;6.020;2023-01-29T03:33:49;4.30;96.40
43099;DHT22;28715;51.988;6.020;2023-01-29T03:36:25;4.30;96.30
43099;DHT22;28715;51.988;6.020;2023-01-29T03:39:08;4.30;96.20
43099;DHT22;28715;51.988;6.020;2023-01-29T03:53:07;4.20;96.40
43099;DHT22;28715;51.988;6.020;2023-01-29T03:55:41;4.10;96.20
43099;DHT22;28715;51.988;6.020;2023-01-29T03:58:37;4.10;96.30
43099;DHT22;28715;51.988;6.020;2023-01-29T04:01:20;4.10;96.20
43099;DHT22;28715;51.988;6.020;2023-01-29T04:03:53;4.00;96.20
43099;DHT22;28715;51.988;6.020;2023-01-29T04:06:23;4.00;96.20
43099;DHT22;28715;51.988;6.020;2023-01-29T04:09:03;4.00;96.30
43099;DHT22;28715;51.988;6.020;2023-01-29T04:11:30;4.00;96.40
43099;DHT22;28715;51.988;6.020;2023-01-29T04:13:58;4.00;96.40
43099;DHT22;28715;51.988;6.020;2023-01-29T04:16:37;4.00;96.50
43099;DHT22;28715;51.988;6.020;2023-01-29T04:19:04;4.00;96.60
43099;DHT22;28715;51.988;6.020;2023-01-29T04:21:30;4.10;96.50
43099;DHT22;28715;51.988;6.020;2023-01-29T04:23:57;4.10;96.40
43099;DHT22;28715;51.988;6.020;2023-01-29T04:29:23;4.10;96.50
43099;DHT22;28715;51.988;6.020;2023-01-29T04:34:27;4.10;96.50
43099;DHT22;28715;51.988;6.020;2023-01-29T04:37:15;4.10;96.50
43099;DHT22;28715;51.988;6.020;2023-01-29T04:39:57;4.00;96.50
43099;DHT22;28715;51.988;6.020;2023-01-29T04:42:32;4.00;96.60
43099;DHT22;28715;51.988;6.020;2023-01-29T04:45:36;4.00;96.60
43099;DHT22;28715;51.988;6.020;2023-01-29T04:48:18;4.10;96.80
43099;DHT22;28715;51.988;6.020;2023-01-29T04:53:28;4.10;96.80
43099;DHT22;28715;51.988;6.020;2023-01-29T04:56:20;4.20;96.80
43099;DHT22;28715;51.988;6.020;2023-01-29T04:59:30;4.20;96.80
43099;DHT22;28715;51.988;6.020;2023-01-29T05:01:48;4.30;97.00
43099;DHT22;28715;51.988;6.020;2023-01-29T05:04:17;4.30;96.70
43099;DHT22;28715;51.988;6.020;2023-01-29T05:06:44;4.30;96.80
43099;DHT22;28715;51.988;6.020;2023-01-29T05:09:13;4.30;96.70
43099;DHT22;28715;51.988;6.020;2023-01-29T05:11:40;4.30;96.60
43099;DHT22;28715;51.988;6.020;2023-01-29T05:14:09;4.30;96.50
43099;DHT22;28715;51.988;6.020;2023-01-29T05:16:45;4.30;96.50
43099;DHT22;28715;51.988;6.020;2023-01-29T05:19:13;4.30;96.50
43099;DHT22;28715;51.988;6.020;2023-01-29T05:21:42;4.30;96.40
43099;DHT22;28715;51.988;6.020;2023-01-29T05:24:13;4.30;96.40
43099;DHT22;28715;51.988;6.020;2023-01-29T05:26:41;4.20;96.30
43099;DHT22;28715;51.988;6.020;2023-01-29T05:29:25;4.20;96.30
43099;DHT22;28715;51.988;6.020;2023-01-29T05:31:51;4.20;96.40
43099;DHT22;28715;51.988;6.020;2023-01-29T05:34:16;4.20;96.50
43099;DHT22;28715;51.988;6.020;2023-01-29T05:36:42;4.30;96.50
43099;DHT22;28715;51.988;6.020;2023-01-29T05:39:07;4.30;96.50
43099;DHT22;28715;51.988;6.020;2023-01-29T05:41:33;4.30;96.40
43099;DHT22;28715;51.988;6.020;2023-01-29T05:43:59;4.30;96.50
43099;DHT22;28715;51.988;6.020;2023-01-29T05:46:24;4.30;96.40
43099;DHT22;28715;51.988;6.020;2023-01-29T05:48:52;4.30;96.50
43099;DHT22;28715;51.988;6.020;2023-01-29T05:51:17;4.30;96.50
43099;DHT22;28715;51.988;6.020;2023-01-29T05:53:43;4.30;96.50
43099;DHT22;28715;51.988;6.020;2023-01-29T05:56:08;4.30;96.50
43099;DHT22;28715;51.988;6.020;2023-01-29T05:58:34;4.30;96.50
43099;DHT22;28715;51.988;6.020;2023-01-29T06:01:14;4.30;96.50
43099;DHT22;28715;51.988;6.020;2023-01-29T06:03:40;4.30;96.50
43099;DHT22;28715;51.988;6.020;2023-01-29T06:06:06;4.40;96.50
43099;DHT22;28715;51.988;6.020;2023-01-29T06:08:32;4.40;96.50
43099;DHT22;28715;51.988;6.020;2023-01-29T06:10:58;4.40;96.50
43099;DHT22;28715;51.988;6.020;2023-01-29T06:13:23;4.40;96.30
43099;DHT22;28715;51.988;6.020;2023-01-29T06:15:49;4.40;96.20
43099;DHT22;28715;51.988;6.020;2023-01-29T06:18:14;4.30;96.10
43099;DHT22;28715;51.988;6.020;2023-01-29T06:20:40;4.30;96.20
43099;DHT22;28715;51.988;6.020;2023-01-29T06:23:05;4.30;96.40
43099;DHT22;28715;51.988;6.020;2023-01-29T06:25:31;4.30;96.50
43099;DHT22;28715;51.988;6.020;2023-01-29T06:27:56;4.30;96.40
43099;DHT22;28715;51.988;6.020;2023-01-29T06:30:22;4.30;96.40
43099;DHT22;28715;51.988;6.020;2023-01-29T06:32:48;4.20;96.40
43099;DHT22;28715;51.988;6.020;2023-01-29T06:35:13;4.20;96.30
43099;DHT22;28715;51.988;6.020;2023-01-29T06:37:39;4.20;96.30
43099;DHT22;28715;51.988;6.020;2023-01-29T06:40:05;4.20;96.40
43099;DHT22;28715;51.988;6.020;2023-01-29T06:42:33;4.20;96.40
43099;DHT22;28715;51.988;6.020;2023-01-29T06:44:59;4.20;96.50
43099;DHT22;28715;51.988;6.020;2023-01-29T06:47:26;4.20;96.50
43099;DHT22;28715;51.988;6.020;2023-01-29T06:49:52;4.20;96.60
43099;DHT22;28715;51.988;6.020;2023-01-29T06:52:17;4.20;96.50
43099;DHT22;28715;51.988;6.020;2023-01-29T06:54:43;4.20;96.60
43099;DHT22;28715;51.988;6.020;2023-01-29T06:57:09;4.20;96.60
43099;DHT22;28715;51.988;6.020;2023-01-29T06:59:34;4.20;96.50
43099;DHT22;28715;51.988;6.020;2023-01-29T07:02:00;4.20;96.60
43099;DHT22;28715;51.988;6.020;2023-01-29T07:04:25;4.20;96.60
43099;DHT22;28715;51.988;6.020;2023-01-29T07:06:51;4.20;96.60
43099;DHT22;28715;51.988;6.020;2023-01-29T07:09:16;4.20;96.50
43099;DHT22;28715;51.988;6.020;2023-01-29T07:11:42;4.20;96.40
43099;DHT22;28715;51.988;6.020;2023-01-29T07:14:07;4.20;96.50
43099;DHT22;28715;51.988;6.020;2023-01-29T07:16:33;4.20;96.60
43099;DHT22;28715;51.988;6.020;2023-01-29T07:18:59;4.20;96.60
43099;DHT22;28715;51.988;6.020;2023-01-29T07:21:24;4.20;96.60
43099;DHT22;28715;51.988;6.020;2023-01-29T07:23:52;4.20;96.60
43099;DHT22;28715;51.988;6.020;2023-01-29T07:26:18;4.20;96.50
43099;DHT22;28715;51.988;6.020;2023-01-29T07:28:44;4.20;96.50
43099;DHT22;28715;51.988;6.020;2023-01-29T07:31:12;4.20;96.50
43099;DHT22;28715;51.988;6.020;2023-01-29T07:33:38;4.20;96.60
43099;DHT22;28715;51.988;6.020;2023-01-29T07:36:07;4.20;96.60
43099;DHT22;28715;51.988;6.020;2023-01-29T07:38:33;4.20;96.60
43099;DHT22;28715;51.988;6.020;2023-01-29T07:40:59;4.20;96.60
43099;DHT22;28715;51.988;6.020;2023-01-29T07:43:24;4.20;96.60
43099;DHT22;28715;51.988;6.020;2023-01-29T07:45:50;4.20;96.60
43099;DHT22;28715;51.988;6.020;2023-01-29T07:48:16;4.20;96.60
43099;DHT22;28715;51.988;6.020;2023-01-29T07:50:42;4.30;96.70
43099;DHT22;28715;51.988;6.020;2023-01-29T07:53:14;4.30;96.50
43099;DHT22;28715;51.988;6.020;2023-01-29T07:55:42;4.30;96.50
43099;DHT22;28715;51.988;6.020;2023-01-29T07:58:08;4.30;96.50
43099;DHT22;28715;51.988;6.020;2023-01-29T08:00:34;4.30;96.50
43099;DHT22;28715;51.988;6.020;2023-01-29T08:03:13;4.30;96.40
43099;DHT22;28715;51.988;6.020;2023-01-29T08:05:40;4.30;96.50
43099;DHT22;28715;51.988;6.020;2023-01-29T08:08:06;4.20;96.60
43099;DHT22;28715;51.988;6.020;2023-01-29T08:10:32;4.20;96.60
43099;DHT22;28715;51.988;6.020;2023-01-29T08:13:00;4.20;96.70
43099;DHT22;28715;51.988;6.020;2023-01-29T08:15:26;4.20;96.70
43099;DHT22;28715;51.988;6.020;2023-01-29T08:17:53;4.20;96.70
43099;DHT22;28715;51.988;6.020;2023-01-29T08:20:18;4.20;96.70
43099;DHT22;28715;51.988;6.020;2023-01-29T08:22:45;4.20;96.80
43099;DHT22;28715;51.988;6.020;2023-01-29T08:25:11;4.20;96.80
43099;DHT22;28715;51.988;6.020;2023-01-29T08:27:37;4.20;96.80
43099;DHT22;28715;51.988;6.020;2023-01-29T08:30:04;4.20;96.90
43099;DHT22;28715;51.988;6.020;2023-01-29T08:32:30;4.30;96.90
43099;DHT22;28715;51.988;6.020;2023-01-29T08:34:55;4.30;97.00
43099;DHT22;28715;51.988;6.020;2023-01-29T08:37:21;4.30;97.00
43099;DHT22;28715;51.988;6.020;2023-01-29T08:39:46;4.30;96.90
43099;DHT22;28715;51.988;6.020;2023-01-29T08:42:12;4.40;96.80
43099;DHT22;28715;51.988;6.020;2023-01-29T08:44:40;4.30;96.70
43099;DHT22;28715;51.988;6.020;2023-01-29T08:47:06;4.40;96.70
43099;DHT22;28715;51.988;6.020;2023-01-29T08:49:31;4.40;96.80
43099;DHT22;28715;51.988;6.020;2023-01-29T08:51:57;4.40;96.70
43099;DHT22;28715;51.988;6.020;2023-01-29T08:54:23;4.50;96.70
43099;DHT22;28715;51.988;6.020;2023-01-29T08:56:49;4.50;96.60
43099;DHT22;28715;51.988;6.020;2023-01-29T08:59:14;4.40;96.50
43099;DHT22;28715;51.988;6.020;2023-01-29T09:01:40;4.50;96.50
43099;DHT22;28715;51.988;6.020;2023-01-29T09:04:05;4.50;96.40
43099;DHT22;28715;51.988;6.020;2023-01-29T09:06:31;4.50;96.40
43099;DHT22;28715;51.988;6.020;2023-01-29T09:08:57;4.50;96.40
43099;DHT22;28715;51.988;6.020;2023-01-29T09:11:22;4.50;96.40
43099;DHT22;28715;51.988;6.020;2023-01-29T09:13:48;4.50;96.40
43099;DHT22;28715;51.988;6.020;2023-01-29T09:16:14;4.50;96.30
43099;DHT22;28715;51.988;6.020;2023-01-29T09:18:39;4.50;96.20
43099;DHT22;28715;51.988;6.020;2023-01-29T09:21:05;4.60;96.30
43099;DHT22;28715;51.988;6.020;2023-01-29T09:23:31;4.60;96.20
43099;DHT22;28715;51.988;6.020;2023-01-29T09:25:56;4.60;96.20
43099;DHT22;28715;51.988;6.020;2023-01-29T09:28:22;4.60;96.10
43099;DHT22;28715;51.988;6.020;2023-01-29T09:30:48;4.60;96.10
43099;DHT22;28715;51.988;6.020;2023-01-29T09:33:13;4.60;96.10
43099;DHT22;28715;51.988;6.020;2023-01-29T09:35:40;4.70;96.00
43099;DHT22;28715;51.988;6.020;2023-01-29T09:38:07;4.60;96.00
43099;DHT22;28715;51.988;6.020;2023-01-29T09:43:46;4.70;96.10
43099;DHT22;28715;51.988;6.020;2023-01-29T09:46:22;4.60;96.10
43099;DHT22;28715;51.988;6.020;2023-01-29T09:48:57;4.70;96.10
43099;DHT22;28715;51.988;6.020;2023-01-29T09:51:31;4.70;96.30
43099;DHT22;28715;51.988;6.020;2023-01-29T09:56:36;4.80;96.10
43099;DHT22;28715;51.988;6.020;2023-01-29T09:59:01;4.80;96.10
43099;DHT22;28715;51.988;6.020;2023-01-29T10:10:14;4.90;95.80
43099;DHT22;28715;51.988;6.020;2023-01-29T10:21:23;5.00;95.90
43099;DHT22;28715;51.988;6.020;2023-01-29T10:26:38;5.00;95.70
43099;DHT22;28715;51.988;6.020;2023-01-29T10:29:06;5.10;95.70
43099;DHT22;28715;51.988;6.020;2023-01-29T10:31:36;5.10;95.70
43099;DHT22;28715;51.988;6.020;2023-01-29T10:36:49;5.10;95.50
43099;DHT22;28715;51.988;6.020;2023-01-29T10:39:17;5.10;95.50
43099;DHT22;28715;51.988;6.020;2023-01-29T10:42:03;5.10;95.60
43099;DHT22;28715;51.988;6.020;2023-01-29T10:53:36;5.20;95.50
43099;DHT22;28715;51.988;6.020;2023-01-29T10:56:23;5.20;95.40
43099;DHT22;28715;51.988;6.020;2023-01-29T10:58:58;5.20;95.40
43099;DHT22;28715;51.988;6.020;2023-01-29T11:01:24;5.20;95.20
43099;DHT22;28715;51.988;6.020;2023-01-29T11:04:01;5.20;95.20
43099;DHT22;28715;51.988;6.020;2023-01-29T11:12:21;5.30;95.10
43099;DHT22;28715;51.988;6.020;2023-01-29T11:17:24;5.30;95.00
43099;DHT22;28715;51.988;6.020;2023-01-29T11:19:52;5.30;94.90
43099;DHT22;28715;51.988;6.020;2023-01-29T11:22:22;5.30;94.90
43099;DHT22;28715;51.988;6.020;2023-01-29T11:25:20;5.30;95.10
43099;DHT22;28715;51.988;6.020;2023-01-29T11:27:53;5.30;94.90
43099;DHT22;28715;51.988;6.020;2023-01-29T11:30:34;5.30;94.90
43099;DHT22;28715;51.988;6.020;2023-01-29T11:33:21;5.30;94.90
43099;DHT22;28715;51.988;6.020;2023-01-29T11:35:47;5.30;94.90
43099;DHT22;28715;51.988;6.020;2023-01-29T11:38:20;5.30;94.90
43099;DHT22;28715;51.988;6.020;2023-01-29T11:40:47;5.30;94.90
43099;DHT22;28715;51.988;6.020;2023-01-29T11:46:06;5.40;95.00
43099;DHT22;28715;51.988;6.020;2023-01-29T11:51:21;5.40;94.90
43099;DHT22;28715;51.988;6.020;2023-01-29T11:54:12;5.50;94.90
43099;DHT22;28715;51.988;6.020;2023-01-29T11:56:42;5.50;94.90
43099;DHT22;28715;51.988;6.020;2023-01-29T11:59:36;5.50;94.80
43099;DHT22;28715;51.988;6.020;2023-01-29T12:02:18;5.60;94.80
43099;DHT22;28715;51.988;6.020;2023-01-29T12:04:45;5.60;94.90
43099;DHT22;28715;51.988;6.020;2023-01-29T12:07:13;5.70;94.90
43099;DHT22;28715;51.988;6.020;2023-01-29T12:09:40;5.70;94.60
43099;DHT22;28715;51.988;6.020;2023-01-29T12:12:40;5.70;94.60
43099;DHT22;28715;51.988;6.020;2023-01-29T12:17:36;5.80;94.90
43099;DHT22;28715;51.988;6.020;2023-01-29T12:20:16;5.90;94.80
43099;DHT22;28715;51.988;6.020;2023-01-29T12:25:43;5.90;94.40
43099;DHT22;28715;51.988;6.020;2023-01-29T12:28:21;5.90;94.60
43099;DHT22;28715;51.988;6.020;2023-01-29T12:31:05;5.80;94.60
43099;DHT22;28715;51.988;6.020;2023-01-29T12:33:38;5.90;94.70
43099;DHT22;28715;51.988;6.020;2023-01-29T12:36:40;5.90;94.80
43099;DHT22;28715;51.988;6.020;2023-01-29T12:39:10;5.90;94.80
43099;DHT22;28715;51.988;6.020;2023-01-29T12:46:59;6.00;94.90
43099;DHT22;28715;51.988;6.020;2023-01-29T12:49:32;6.00;94.70
43099;DHT22;28715;51.988;6.020;2023-01-29T12:52:24;6.00;94.70
43099;DHT22;28715;51.988;6.020;2023-01-29T12:54:59;6.00;94.90
43099;DHT22;28715;51.988;6.020;2023-01-29T13:00:12;6.00;94.90
43099;DHT22;28715;51.988;6.020;2023-01-29T13:02:39;6.00;95.00
43099;DHT22;28715;51.988;6.020;2023-01-29T13:05:22;5.90;95.00
43099;DHT22;28715;51.988;6.020;2023-01-29T13:08:07;5.90;95.20
43099;DHT22;28715;51.988;6.020;2023-01-29T13:10:37;6.00;95.30
43099;DHT22;28715;51.988;6.020;2023-01-29T13:13:26;6.00;95.30
43099;DHT22;28715;51.988;6.020;2023-01-29T13:15:55;6.00;95.10
43099;DHT22;28715;51.988;6.020;2023-01-29T13:21:06;5.90;95.20
43099;DHT22;28715;51.988;6.020;2023-01-29T13:23:41;5.80;95.40
43099;DHT22;28715;51.988;6.020;2023-01-29T13:26:07;5.80;95.40
43099;DHT22;28715;51.988;6.020;2023-01-29T13:28:33;5.80;95.50
43099;DHT22;28715;51.988;6.020;2023-01-29T13:31:17;5.80;95.50
43099;DHT22;28715;51.988;6.020;2023-01-29T13:33:57;5.80;95.60
43099;DHT22;28715;51.988;6.020;2023-01-29T13:36:26;5.80;95.60
43099;DHT22;28715;51.988;6.020;2023-01-29T13:39:04;5.70;95.60
43099;DHT22;28715;51.988;6.020;2023-01-29T13:41:41;5.70;95.80
43099;DHT22;28715;51.988;6.020;2023-01-29T13:44:18;5.70;95.90
43099;DHT22;28715;51.988;6.020;2023-01-29T13:46:59;5.60;95.90
43099;DHT22;28715;51.988;6.020;2023-01-29T13:49:44;5.60;95.90
43099;DHT22;28715;51.988;6.020;2023-01-29T13:52:34;5.60;96.10
43099;DHT22;28715;51.988;6.020;2023-01-29T13:55:04;5.50;96.20
43099;DHT22;28715;51.988;6.020;2023-01-29T14:10:31;5.60;96.40
43099;DHT22;28715;51.988;6.020;2023-01-29T14:15:33;5.60;96.40
43099;DHT22;28715;51.988;6.020;2023-01-29T14:18:18;5.60;96.40
43099;DHT22;28715;51.988;6.020;2023-01-29T14:21:01;5.60;96.40
43099;DHT22;28715;51.988;6.020;2023-01-29T14:23:48;5.60;96.40
43099;DHT22;28715;51.988;6.020;2023-01-29T14:31:56;5.60;96.40
43099;DHT22;28715;51.988;6.020;2023-01-29T14:34:25;5.60;96.30
43099;DHT22;28715;51.988;6.020;2023-01-29T14:36:54;5.60;96.30
43099;DHT22;28715;51.988;6.020;2023-01-29T14:39:22;5.60;96.30
43099;DHT22;28715;51.988;6.020;2023-01-29T14:41:50;5.60;96.40
43099;DHT22;28715;51.988;6.020;2023-01-29T14:49:59;5.70;96.50
43099;DHT22;28715;51.988;6.020;2023-01-29T14:52:31;5.70;96.20
43099;DHT22;28715;51.988;6.020;2023-01-29T14:55:00;5.60;96.20
43099;DHT22;28715;51.988;6.020;2023-01-29T14:57:28;5.70;96.20
43099;DHT22;28715;51.988;6.020;2023-01-29T15:00:05;5.60;96.20
43099;DHT22;28715;51.988;6.020;2023-01-29T15:02:42;5.60;96.20
43099;DHT22;28715;51.988;6.020;2023-01-29T15:05:15;5.70;96.20
43099;DHT22;28715;51.988;6.020;2023-01-29T15:07:59;5.60;96.10
43099;DHT22;28715;51.988;6.020;2023-01-29T15:16:20;5.70;96.30
43099;DHT22;28715;51.988;6.020;2023-01-29T15:18:48;5.70;96.30
43099;DHT22;28715;51.988;6.020;2023-01-29T15:21:17;5.60;96.10
43099;DHT22;28715;51.988;6.020;2023-01-29T15:23:44;5.60;96.30
43099;DHT22;28715;51.988;6.020;2023-01-29T15:26:17;5.70;96.30
43099;DHT22;28715;51.988;6.020;2023-01-29T15:28:44;5.70;96.40
43099;DHT22;28715;51.988;6.020;2023-01-29T15:31:19;5.70;96.40
43099;DHT22;28715;51.988;6.020;2023-01-29T15:33:45;5.70;96.40
43099;DHT22;28715;51.988;6.020;2023-01-29T15:36:27;5.70;96.30
43099;DHT22;28715;51.988;6.020;2023-01-29T15:41:37;5.60;96.30
43099;DHT22;28715;51.988;6.020;2023-01-29T15:44:07;5.60;96.40
43099;DHT22;28715;51.988;6.020;2023-01-29T15:46:38;5.50;96.50
43099;DHT22;28715;51.988;6.020;2023-01-29T15:49:13;5.50;96.70
43099;DHT22;28715;51.988;6.020;2023-01-29T15:51:40;5.50;96.70
43099;DHT22;28715;51.988;6.020;2023-01-29T15:54:09;5.50;96.80
43099;DHT22;28715;51.988;6.020;2023-01-29T15:56:50;5.50;96.80
43099;DHT22;28715;51.988;6.020;2023-01-29T15:59:33;5.50;96.80
43099;DHT22;28715;51.988;6.020;2023-01-29T16:04:49;5.60;96.80
43099;DHT22;28715;51.988;6.020;2023-01-29T16:07:18;5.50;96.70
43099;DHT22;28715;51.988;6.020;2023-01-29T16:09:47;5.50;96.90
43099;DHT22;28715;51.988;6.020;2023-01-29T16:12:13;5.50;96.90
43099;DHT22;28715;51.988;6.020;2023-01-29T16:14:40;5.50;96.70
43099;DHT22;28715;51.988;6.020;2023-01-29T16:17:26;5.50;96.70
43099;DHT22;28715;51.988;6.020;2023-01-29T16:19:58;5.40;96.80
43099;DHT22;28715;51.988;6.020;2023-01-29T16:22:25;5.40;96.80
43099;DHT22;28715;51.988;6.020;2023-01-29T16:24:53;5.40;96.80
43099;DHT22;28715;51.988;6.020;2023-01-29T16:27:28;5.40;97.00
43099;DHT22;28715;51.988;6.020;2023-01-29T16:29:55;5.40;96.80
43099;DHT22;28715;51.988;6.020;2023-01-29T16:32:20;5.50;96.80
43099;DHT22;28715;51.988;6.020;2023-01-29T16:34:46;5.50;96.80
43099;DHT22;28715;51.988;6.020;2023-01-29T16:37:31;5.50;96.70
43099;DHT22;28715;51.988;6.020;2023-01-29T16:39:57;5.50;96.70
43099;DHT22;28715;51.988;6.020;2023-01-29T16:42:26;5.50;96.70
43099;DHT22;28715;51.988;6.020;2023-01-29T16:44:58;5.50;96.70
43099;DHT22;28715;51.988;6.020;2023-01-29T16:52:38;5.50;96.80
43099;DHT22;28715;51.988;6.020;2023-01-29T16:55:19;5.50;96.60
43099;DHT22;28715;51.988;6.020;2023-01-29T16:57:50;5.40;96.80
43099;DHT22;28715;51.988;6.020;2023-01-29T17:00:25;5.50;96.90
43099;DHT22;28715;51.988;6.020;2023-01-29T17:02:55;5.50;97.00
43099;DHT22;28715;51.988;6.020;2023-01-29T17:05:26;5.40;97.10
43099;DHT22;28715;51.988;6.020;2023-01-29T17:07:55;5.40;97.40
43099;DHT22;28715;51.988;6.020;2023-01-29T17:10:22;5.40;97.50
43099;DHT22;28715;51.988;6.020;2023-01-29T17:13:04;5.50;97.50
43099;DHT22;28715;51.988;6.020;2023-01-29T17:15:44;5.50;97.50
43099;DHT22;28715;51.988;6.020;2023-01-29T17:18:19;5.50;97.60
43099;DHT22;28715;51.988;6.020;2023-01-29T17:20:46;5.50;97.60
43099;DHT22;28715;51.988;6.020;2023-01-29T17:23:11;5.50;97.80
43099;DHT22;28715;51.988;6.020;2023-01-29T17:25:37;5.50;97.90
43099;DHT22;28715;51.988;6.020;2023-01-29T17:28:03;5.40;98.20
43099;DHT22;28715;51.988;6.020;2023-01-29T17:30:33;5.40;98.40
43099;DHT22;28715;51.988;6.020;2023-01-29T17:33:16;5.40;98.40
43099;DHT22;28715;51.988;6.020;2023-01-29T17:35:42;5.40;98.40
43099;DHT22;28715;51.988;6.020;2023-01-29T17:38:13;5.40;98.30
43099;DHT22;28715;51.988;6.020;2023-01-29T17:43:10;5.40;98.40
43099;DHT22;28715;51.988;6.020;2023-01-29T17:45:39;5.30;98.40
43099;DHT22;28715;51.988;6.020;2023-01-29T17:48:25;5.30;98.60
43099;DHT22;28715;51.988;6.020;2023-01-29T17:50:54;5.30;98.60
43099;DHT22;28715;51.988;6.020;2023-01-29T17:53:20;5.40;98.70
43099;DHT22;28715;51.988;6.020;2023-01-29T17:55:46;5.40;98.70
43099;DHT22;28715;51.988;6.020;2023-01-29T17:58:19;5.40;98.70
43099;DHT22;28715;51.988;6.020;2023-01-29T18:00:46;5.40;98.70
43099;DHT22;28715;51.988;6.020;2023-01-29T18:03:12;5.40;98.60
43099;DHT22;28715;51.988;6.020;2023-01-29T18:05:38;5.40;98.60
43099;DHT22;28715;51.988;6.020;2023-01-29T18:10:43;5.30;98.50
43099;DHT22;28715;51.988;6.020;2023-01-29T18:13:09;5.30;98.40
43099;DHT22;28715;51.988;6.020;2023-01-29T18:15:34;5.20;98.40
43099;DHT22;28715;51.988;6.020;2023-01-29T18:18:00;5.30;98.50
43099;DHT22;28715;51.988;6.020;2023-01-29T18:20:26;5.30;98.40
43099;DHT22;28715;51.988;6.020;2023-01-29T18:22:52;5.30;98.10
43099;DHT22;28715;51.988;6.020;2023-01-29T18:25:18;5.30;98.10
43099;DHT22;28715;51.988;6.020;2023-01-29T18:27:44;5.30;98.10
43099;DHT22;28715;51.988;6.020;2023-01-29T18:30:11;5.30;98.00
43099;DHT22;28715;51.988;6.020;2023-01-29T18:32:37;5.30;98.00
43099;DHT22;28715;51.988;6.020;2023-01-29T18:35:06;5.30;98.10
43099;DHT22;28715;51.988;6.020;2023-01-29T18:37:32;5.30;98.10
43099;DHT22;28715;51.988;6.020;2023-01-29T18:39:59;5.30;98.00
43099;DHT22;28715;51.988;6.020;2023-01-29T18:42:24;5.30;97.90